Flight Track Log - Related Links

Times and Time Zones

All times are in EDT time to prevent confusion due to time zone crossing. See the SWA378 flight status page for this flight to view local times or setup timezone preferences in your user account.

Time Position Orientation Groundspeed Altitude Reporting Facility
EDT Latitude Longitude Course Direction KTS MPH feet Rate Location/Type
Tue 01:25:44 PM 33.9333 -118.4500 90° East 161 185 1,400  Level Southern California TRACON
Tue 01:26:16 PM 33.9269 -118.4867 258° West 205 236 1,900 2,489 Climbing Los Angeles Center
Tue 01:27:18 PM 33.8747 -118.5369 219° Southwest 257 296 5,300 3,484 Climbing Los Angeles Center
Tue 01:28:20 PM 33.8031 -118.5589 194° South 261 300 9,100 2,758 Climbing Los Angeles Center
Tue 01:29:22 PM 33.7297 -118.5328 164° South 283 326 11,000 2,081 Climbing Los Angeles Center
Tue 01:30:24 PM 33.6756 -118.4478 127° Southeast 356 410 13,400 2,758 Climbing Los Angeles Center
Tue 01:31:00 PM 33.6334 -118.2940 90° East  Level FlightAware Approximate
Tue 01:31:26 PM 33.6444 -118.3097 105° East 373 429 16,700  Level Los Angeles Center
Tue 01:32:40 PM 33.6442 -118.1842 90° East 386 444 18,800 2,102 Climbing Los Angeles Center
Tue 01:33:43 PM 33.6444 -118.0300 90° East 392 451 21,500 2,016 Climbing Los Angeles Center
Tue 01:34:45 PM 33.6436 -117.8928 90° East 412 474 23,000 1,113 Climbing Los Angeles Center
Tue 01:35:47 PM 33.6431 -117.7169 90° East 450 518 23,800 1,210 Climbing Los Angeles Center
Tue 01:36:49 PM 33.6425 -117.5614 90° East 465 535 25,500 1,597 Climbing Los Angeles Center
Tue 01:37:51 PM 33.6406 -117.4036 91° East 472 543 27,100 1,597 Climbing Los Angeles Center
Tue 01:38:53 PM 33.6394 -117.2447 90° East 477 549 28,800 1,452 Climbing Los Angeles Center
Tue 01:39:55 PM 33.6381 -117.0842 91° East 481 554 30,100 1,824 Climbing Los Angeles Center
Tue 01:40:58 PM 33.6542 -116.8967 84° East 479 551 32,600 1,572 Climbing Los Angeles Center
Tue 01:42:00 PM 33.6826 -116.7539 76° East  Level FlightAware Approximate
Tue 01:43:02 PM 33.7064 -116.5908 76° East 470 541 35,000  Level Los Angeles Center
Tue 01:44:03 PM 33.7272 -116.4669 79° East 474 545 35,000  Level Los Angeles Center
Tue 01:45:06 PM 33.7572 -116.2814 79° East 474 545 35,000  Level Los Angeles Center
Tue 01:46:08 PM 33.7861 -116.1033 79° East 469 540 35,000  Level Los Angeles Center
Tue 01:47:10 PM 33.8094 -115.9517 79° East 464 534 35,000  Level Los Angeles Center
Tue 01:48:12 PM 33.8358 -115.7936 79° East 465 535 35,000 484 Level Los Angeles Center
Tue 01:49:14 PM 33.8597 -115.6486 79° East 462 532 36,000 432 Climbing Los Angeles Center
Tue 01:50:17 PM 33.8894 -115.4758 78° East 471 542 35,900 192 Descending Los Angeles Center
Tue 01:51:19 PM 33.9131 -115.3247 79° East 464 534 36,400 484 Climbing Los Angeles Center
Tue 01:52:21 PM 33.9361 -115.1747 79° East 459 528 36,900 242 Climbing Los Angeles Center
Tue 01:53:23 PM 33.9594 -115.0236 79° East 459 528 36,900 48 Level Los Angeles Center
Tue 01:54:25 PM 33.9839 -114.8681 79° East 459 528 37,000  Climbing Los Angeles Center
Tue 01:55:27 PM 34.0108 -114.6919 79° East 457 526 36,900 -48 Descending Los Angeles Center
Tue 01:56:29 PM 34.0333 -114.5394 80° East 462 532 36,900  Level Los Angeles Center
Tue 01:57:31 PM 34.0558 -114.3906 80° East 456 525 36,900  Level Los Angeles Center
Tue 01:58:14 PM 34.0700 -114.2989 79° East 457 526 36,900 58 Level Albuquerque Center
Tue 01:59:15 PM 34.0922 -114.1439 80° East 451 519 37,000 49 Climbing Albuquerque Center
Tue 02:00:17 PM 34.1136 -113.9947 80° East 451 519 37,000  Level Albuquerque Center
Tue 02:01:19 PM 34.1397 -113.8217 80° East 450 518 37,000  Level Albuquerque Center
Tue 02:02:21 PM 34.1600 -113.6756 80° East 446 513 37,000  Level Albuquerque Center
Tue 02:03:23 PM 34.1806 -113.5222 81° East 448 516 37,000  Level Albuquerque Center
Tue 02:04:25 PM 34.2011 -113.3761 80° East 444 511 37,000  Level Albuquerque Center
Tue 02:05:27 PM 34.2219 -113.2289 80° East 444 511 37,000  Level Albuquerque Center
Tue 02:06:29 PM 34.2417 -113.0839 81° East 441 507 37,000  Level Albuquerque Center
Tue 02:07:31 PM 34.2661 -112.9097 80° East 439 505 37,000  Level Albuquerque Center
Tue 02:08:33 PM 34.2853 -112.7653 81° East 436 502 37,000  Level Albuquerque Center
Tue 02:09:35 PM 34.3044 -112.6211 81° East 434 499 37,000  Level Albuquerque Center
Tue 02:10:36 PM 34.3242 -112.4778 81° East 434 499 37,000  Level Albuquerque Center
Tue 02:11:38 PM 34.3414 -112.3347 82° East 431 496 37,000  Level Albuquerque Center
Tue 02:12:40 PM 34.3608 -112.1922 81° East 429 494 37,000  Level Albuquerque Center
Tue 02:13:42 PM 34.3789 -112.0497 81° East 428 493 37,000  Level Albuquerque Center
Tue 02:14:44 PM 34.3967 -111.9058 81° East 429 494 37,000  Level Albuquerque Center
Tue 02:15:46 PM 34.4197 -111.7347 81° East 427 491 37,000  Level Albuquerque Center
Tue 02:16:47 PM 34.4372 -111.5931 81° East 426 490 37,000  Level Albuquerque Center
Tue 02:17:49 PM 34.4547 -111.4517 81° East 423 487 37,000  Level Albuquerque Center
Tue 02:18:51 PM 34.4719 -111.3097 82° East 424 488 37,000  Level Albuquerque Center
Tue 02:19:53 PM 34.4894 -111.1692 81° East 423 487 37,000  Level Albuquerque Center
Tue 02:20:54 PM 34.5050 -111.0272 82° East 424 488 37,000  Level Albuquerque Center
Tue 02:21:56 PM 34.5236 -110.8847 81° East 427 491 37,000  Level Albuquerque Center
Tue 02:22:58 PM 34.5436 -110.7200 82° East 424 488 37,000  Level Albuquerque Center
Tue 02:24:00 PM 34.5600 -110.5853 82° East 423 487 37,000  Level Albuquerque Center
Tue 02:25:01 PM 34.5783 -110.4281 82° East 423 487 37,000  Level Albuquerque Center
Tue 02:26:03 PM 34.5933 -110.2928 82° East 423 487 37,000  Level Albuquerque Center
Tue 02:27:05 PM 34.6114 -110.1364 82° East 421 484 37,000  Level Albuquerque Center
Tue 02:28:07 PM 34.6247 -109.9981 83° East 428 493 37,000  Level Albuquerque Center
Tue 02:29:08 PM 34.6403 -109.8647 82° East 423 487 37,000  Level Albuquerque Center
Tue 02:30:10 PM 34.6572 -109.7083 82° East 419 482 37,000  Level Albuquerque Center
Tue 02:31:12 PM 34.6719 -109.5767 82° East 415 478 37,000  Level Albuquerque Center
Tue 02:32:14 PM 34.6881 -109.4200 83° East 416 479 37,000  Level Albuquerque Center
Tue 02:33:15 PM 34.7025 -109.2872 82° East 416 479 37,000  Level Albuquerque Center
Tue 02:34:17 PM 34.7186 -109.1306 83° East 418 481 37,000  Level Albuquerque Center
Tue 02:35:19 PM 34.7328 -108.9986 83° East 414 476 37,000  Level Albuquerque Center
Tue 02:36:21 PM 34.7483 -108.8414 83° East 419 482 37,000  Level Albuquerque Center
Tue 02:37:22 PM 34.7625 -108.7094 83° East 415 478 37,000  Level Albuquerque Center
Tue 02:38:24 PM 34.7753 -108.5764 83° East 414 476 37,000  Level Albuquerque Center
Tue 02:39:26 PM 34.7903 -108.4211 83° East 419 482 37,000  Level Albuquerque Center
Tue 02:40:28 PM 34.8044 -108.2825 83° East 416 479 37,000  Level Albuquerque Center
Tue 02:41:29 PM 34.8167 -108.1456 84° East 410 472 37,000  Level Albuquerque Center
Tue 02:42:31 PM 34.8306 -108.0083 83° East 410 472 37,000  Level Albuquerque Center
Tue 02:44:35 PM 34.8586 -107.7036 84° East 412 474 37,000  Level Albuquerque Center
Tue 02:45:36 PM 34.8700 -107.5647 84° East 413 475 37,000  Level Albuquerque Center
Tue 02:46:38 PM 34.8833 -107.4269 83° East 411 473 37,000  Level Albuquerque Center
Tue 02:47:40 PM 34.8950 -107.2878 84° East 414 476 37,000  Level Albuquerque Center
Tue 02:48:42 PM 34.9097 -107.1367 83° East 420 483 37,000  Level Albuquerque Center
Tue 02:49:43 PM 34.9211 -107.0031 84° East 417 480 37,000  Level Albuquerque Center
Tue 02:50:45 PM 34.9333 -106.8486 84° East 413 475 37,000  Level Albuquerque Center
Tue 02:51:47 PM 34.9425 -106.7175 85° East 406 467 37,000  Level Albuquerque Center
Tue 02:52:48 PM 34.9561 -106.5589 84° East 418 481 37,000  Level Albuquerque Center
Tue 02:53:50 PM 34.9664 -106.4267 85° East 426 490 37,000  Level Albuquerque Center
Tue 02:54:52 PM 34.9778 -106.2869 84° East 419 482 37,000  Level Albuquerque Center
Tue 02:55:54 PM 34.9889 -106.1461 84° East 419 482 37,000  Level Albuquerque Center
Tue 02:56:55 PM 35.0014 -105.9761 85° East 420 483 37,000  Level Albuquerque Center
Tue 02:57:57 PM 35.0122 -105.8464 84° East 420 483 37,000  Level Albuquerque Center
Tue 02:58:59 PM 35.0258 -105.6783 84° East 421 484 37,000  Level Albuquerque Center
Tue 03:00:01 PM 35.0350 -105.5331 86° East 425 489 37,000  Level Albuquerque Center
Tue 03:01:02 PM 35.0456 -105.3872 85° East 427 491 37,000  Level Albuquerque Center
Tue 03:02:04 PM 35.0567 -105.2406 85° East 429 494 37,000  Level Albuquerque Center
Tue 03:03:06 PM 35.0672 -105.0928 85° East 433 498 37,000  Level Albuquerque Center
Tue 03:04:07 PM 35.0778 -104.9461 85° East 431 496 37,000  Level Albuquerque Center
Tue 03:05:09 PM 35.0881 -104.7994 85° East 430 495 37,000  Level Albuquerque Center
Tue 03:06:11 PM 35.0981 -104.6522 85° East 431 496 37,000  Level Albuquerque Center
Tue 03:07:12 PM 35.1117 -104.4847 84° East 431 496 37,000  Level Albuquerque Center
Tue 03:08:14 PM 35.1197 -104.3375 86° East 434 499 37,000  Level Albuquerque Center
Tue 03:09:16 PM 35.1292 -104.1917 85° East 432 497 37,000  Level Albuquerque Center
Tue 03:10:18 PM 35.1381 -104.0464 86° East 431 496 37,000  Level Albuquerque Center
Tue 03:11:19 PM 35.1456 -103.8997 86° East 432 497 37,000  Level Albuquerque Center
Tue 03:12:21 PM 35.1547 -103.7525 86° East 433 498 37,000  Level Albuquerque Center
Tue 03:13:23 PM 35.1653 -103.5806 86° East 432 497 37,000  Level Albuquerque Center
Tue 03:14:25 PM 35.1739 -103.4311 86° East 436 502 37,000  Level Albuquerque Center
Tue 03:15:26 PM 35.1825 -103.2814 86° East 438 504 37,000  Level Albuquerque Center
Tue 03:16:28 PM 35.1908 -103.1292 86° East 443 510 37,000  Level Albuquerque Center
Tue 03:17:30 PM 35.1978 -102.9769 87° East 446 513 37,000  Level Albuquerque Center
Tue 03:18:32 PM 35.2056 -102.8283 86° East 449 517 37,000  Level Albuquerque Center
Tue 03:19:33 PM 35.2131 -102.6753 87° East 451 519 37,000  Level Albuquerque Center
Tue 03:20:35 PM 35.2200 -102.5244 87° East 447 514 37,000  Level Albuquerque Center
Tue 03:21:37 PM 35.2294 -102.3397 86° East 453 521 37,000  Level Albuquerque Center
Tue 03:22:38 PM 35.2364 -102.1881 87° East 449 517 37,000  Level Albuquerque Center
Tue 03:23:40 PM 35.2428 -102.0339 87° East 452 520 37,000  Level Albuquerque Center
Tue 03:24:42 PM 35.2514 -101.8692 86° East 456 525 37,000  Level Albuquerque Center
Tue 03:25:44 PM 35.2592 -101.7122 86° East 459 528 37,000  Level Albuquerque Center
Tue 03:26:45 PM 35.2658 -101.5639 87° East 458 527 37,000  Level Albuquerque Center
Tue 03:27:47 PM 35.2703 -101.4064 88° East 462 532 37,000  Level Albuquerque Center
Tue 03:28:49 PM 35.2758 -101.2375 88° East 465 535 37,000  Level Albuquerque Center
Tue 03:29:51 PM 35.2819 -101.0800 87° East 465 535 37,000  Level Albuquerque Center
Tue 03:30:52 PM 35.2875 -100.9214 87° East 466 536 37,000  Level Albuquerque Center
Tue 03:31:54 PM 35.2944 -100.7308 87° East 468 539 37,000  Level Albuquerque Center
Tue 03:32:56 PM 35.2986 -100.5794 88° East 470 541 37,000  Level Albuquerque Center
Tue 03:33:57 PM 35.3056 -100.4175 87° East 475 547 37,000  Level Albuquerque Center
Tue 03:34:59 PM 35.3103 -100.2547 88° East 478 550 37,000  Level Albuquerque Center
Tue 03:36:01 PM 35.3133 -100.0894 89° East 482 555 37,000  Level Albuquerque Center
Tue 03:37:02 PM 35.3183 -99.9256 88° East 483 556 37,000  Level Albuquerque Center
Tue 03:38:04 PM 35.3239 -99.7283 88° East 485 558 37,000  Level Albuquerque Center
Tue 03:39:06 PM 35.3283 -99.5636 88° East 484 557 37,000  Level Albuquerque Center
Tue 03:40:07 PM 35.3311 -99.3986 89° East 486 559 37,000  Level Albuquerque Center
Tue 03:40:35 PM 35.3308 -99.3322 90° East 480 552 37,000  Level Fort Worth Center
Tue 03:41:35 PM 35.3356 -99.1669 88° East 480 552 37,000  Level Fort Worth Center
Tue 03:42:35 PM 35.3397 -99.0017 88° East 480 552 37,000  Level Fort Worth Center
Tue 03:43:35 PM 35.3417 -98.8361 89° East 480 552 37,000 50 Level Fort Worth Center
Tue 03:44:35 PM 35.3456 -98.6708 88° East 475 547 37,100  Climbing Fort Worth Center
Tue 03:45:35 PM 35.3472 -98.5056 89° East 475 547 37,000 -50 Descending Fort Worth Center
Tue 03:46:35 PM 35.3508 -98.3272 89° East 475 547 37,000  Level Fort Worth Center
Tue 03:47:35 PM 35.3517 -98.1644 90° East 475 547 37,000  Level Fort Worth Center
Tue 03:48:34 PM 35.3547 -97.9989 89° East 475 547 37,000  Level Fort Worth Center
Tue 03:49:35 PM 35.3556 -97.8311 90° East 475 547 37,000  Level Fort Worth Center
Tue 03:50:35 PM 35.3558 -97.6681 90° East 475 547 37,000  Level Fort Worth Center
Tue 03:51:35 PM 35.3561 -97.5383 90° East 475 547 37,000  Level Fort Worth Center
Tue 03:52:35 PM 35.3686 -97.3422 85° East 493 567 37,000  Level Fort Worth Center
Tue 03:53:35 PM 35.3642 -97.1564 92° East 493 567 37,000  Level Fort Worth Center
Tue 03:54:35 PM 35.3681 -96.9961 88° East 485 558 37,000  Level Fort Worth Center
Tue 03:55:35 PM 35.3717 -96.8331 88° East 480 552 37,000  Level Fort Worth Center
Tue 03:56:35 PM 35.3747 -96.6700 89° East 474 545 37,000  Level Fort Worth Center
Tue 03:57:35 PM 35.3758 -96.5047 89° East 479 551 37,000  Level Fort Worth Center
Tue 03:58:34 PM 35.3786 -96.3417 89° East 479 551 37,000  Level Fort Worth Center
Tue 03:59:35 PM 35.3814 -96.1786 89° East 479 551 37,000  Level Fort Worth Center
Tue 04:00:35 PM 35.3817 -96.0158 90° East 479 551 37,000  Level Fort Worth Center
Tue 04:01:35 PM 35.3861 -95.8528 88° East 479 551 37,000  Level Fort Worth Center
Tue 04:03:20 PM 35.3889 -95.5653 89° East 465 535 37,000  Level Memphis Center
Tue 04:04:20 PM 35.3872 -95.4019 91° East 470 541 37,000  Level Memphis Center
Tue 04:05:20 PM 35.3875 -95.2392 90° East 476 548 37,000  Level Memphis Center
Tue 04:06:20 PM 35.3875 -95.0761 90° East 476 548 37,000  Level Memphis Center
Tue 04:07:20 PM 35.3872 -94.9106 90° East 481 554 37,000  Level Memphis Center
Tue 04:08:20 PM 35.3869 -94.7450 90° East 481 554 37,000  Level Memphis Center
Tue 04:09:20 PM 35.3886 -94.5822 89° East 481 554 37,000  Level Memphis Center
Tue 04:10:20 PM 35.3856 -94.4164 91° East 481 554 37,000  Level Memphis Center
Tue 04:11:20 PM 35.3883 -94.2639 89° East 486 559 37,000  Level Memphis Center
Tue 04:12:20 PM 35.3747 -94.1028 96° East 486 559 37,000  Level Memphis Center
Tue 04:13:20 PM 35.3647 -93.9444 94° East 480 552 37,000  Level Memphis Center
Tue 04:14:20 PM 35.3525 -93.7811 95° East 480 552 37,000  Level Memphis Center
Tue 04:15:20 PM 35.3403 -93.6175 95° East 480 552 37,000  Level Memphis Center
Tue 04:16:20 PM 35.3300 -93.4544 94° East 480 552 37,000  Level Memphis Center
Tue 04:17:20 PM 35.3169 -93.2961 96° East 480 552 37,000  Level Memphis Center
Tue 04:18:20 PM 35.3039 -93.1378 96° East 474 545 37,000  Level Memphis Center
Tue 04:19:20 PM 35.2928 -92.9772 95° East 474 545 37,000  Level Memphis Center
Tue 04:20:20 PM 35.2794 -92.8114 96° East 479 551 37,000  Level Memphis Center
Tue 04:21:20 PM 35.2619 -92.6356 97° East 483 556 37,000  Level Memphis Center
Tue 04:22:20 PM 35.2500 -92.4803 95° East 477 549 37,000  Level Memphis Center
Tue 04:23:20 PM 35.2358 -92.3272 96° East 465 535 37,000  Level Memphis Center
Tue 04:24:20 PM 35.2236 -92.1719 95° East 465 535 37,000  Level Memphis Center
Tue 04:25:20 PM 35.2111 -92.0192 96° East 459 528 37,000  Level Memphis Center
Tue 04:26:20 PM 35.1986 -91.8689 96° East 453 521 37,000  Level Memphis Center
Tue 04:28:20 PM 35.1706 -91.5686 96° East 448 516 37,000  Level Memphis Center
Tue 04:29:20 PM 35.1572 -91.4161 96° East 448 516 37,000  Level Memphis Center
Tue 04:30:20 PM 35.1458 -91.2739 96° East 438 504 37,000  Level Memphis Center
Tue 04:31:20 PM 35.1303 -91.1264 97° East 438 504 37,000  Level Memphis Center
Tue 04:32:20 PM 35.1164 -90.9764 96° East 432 497 37,000  Level Memphis Center
Tue 04:33:20 PM 35.1025 -90.8317 97° East 439 505 37,000  Level Memphis Center
Tue 04:34:20 PM 35.0883 -90.6819 97° East 439 505 37,000  Level Memphis Center
Tue 04:35:20 PM 35.0739 -90.5525 98° East 439 505 37,000  Level Memphis Center
Tue 04:36:20 PM 35.0594 -90.4053 97° East 444 511 37,000  Level Memphis Center
Tue 04:37:20 PM 35.0447 -90.2556 97° East 444 511 37,000  Level Memphis Center
Tue 04:38:20 PM 35.0300 -90.1036 97° East 444 511 37,000  Level Memphis Center
Tue 04:39:20 PM 35.0150 -89.9564 97° East 444 511 37,000  Level Memphis Center
Tue 04:40:20 PM 34.9956 -89.7892 98° East 444 511 37,000  Level Memphis Center
Tue 04:41:20 PM 34.9697 -89.6297 101° East 467 537 37,000  Level Memphis Center
Tue 04:42:20 PM 34.9436 -89.4781 102° East 460 529 37,000  Level Memphis Center
Tue 04:43:20 PM 34.9197 -89.3314 101° East 454 522 37,000  Level Memphis Center
Tue 04:44:20 PM 34.8997 -89.1975 100° East 449 517 37,000  Level Memphis Center
Tue 04:45:20 PM 34.8753 -89.0483 101° East 449 517 37,000  Level Memphis Center
Tue 04:46:20 PM 34.8528 -88.8994 100° East 449 517 37,000  Level Memphis Center
Tue 04:47:20 PM 34.8300 -88.7481 100° East 449 517 37,000  Level Memphis Center
Tue 04:48:20 PM 34.8069 -88.5992 101° East 449 517 37,000  Level Memphis Center
Tue 04:49:20 PM 34.7819 -88.4556 102° East 446 513 37,000  Level Memphis Center
Tue 04:50:20 PM 34.7608 -88.3069 100° East 439 505 37,000  Level Memphis Center
Tue 04:51:20 PM 34.7308 -88.1333 102° East 466 536 37,000  Level Memphis Center
Tue 04:52:20 PM 34.7092 -87.9822 100° East 473 544 37,000  Level Memphis Center
Tue 04:53:20 PM 34.6831 -87.8289 102° East 463 533 37,000  Level Memphis Center
Tue 04:54:20 PM 34.6569 -87.6758 102° East 463 533 37,000 -1,423 Level Memphis Center
Tue 04:55:56 PM 34.6219 -87.4364 100° East 455 524 33,300 -1,538 Descending Atlanta Center
Tue 04:56:56 PM 34.5928 -87.2786 103° East 455 524 33,000 -150 Descending Atlanta Center
Tue 04:57:56 PM 34.5611 -87.1286 104° East 461 531 33,000  Level Atlanta Center
Tue 04:58:56 PM 34.5317 -86.9711 103° East 461 531 33,000  Level Atlanta Center
Tue 04:59:56 PM 34.5017 -86.8164 103° East 461 531 33,000 -350 Level Atlanta Center
Tue 05:00:56 PM 34.4717 -86.6617 103° East 461 531 32,300 -500 Descending Atlanta Center
Tue 05:01:56 PM 34.4394 -86.5044 104° East 467 537 32,000 -400 Descending Atlanta Center
Tue 05:02:56 PM 34.4114 -86.3475 102° East 472 543 31,500 -750 Descending Atlanta Center
Tue 05:03:56 PM 34.3744 -86.1956 106° East 472 543 30,500 -1,000 Descending Atlanta Center
Tue 05:04:56 PM 34.3353 -86.0436 107° East 477 549 29,500 -950 Descending Atlanta Center
Tue 05:05:56 PM 34.2981 -85.8819 106° East 477 549 28,600 -950 Descending Atlanta Center
Tue 05:06:56 PM 34.2667 -85.7481 106° East 471 542 27,600 -1,850 Descending Atlanta Center
Tue 05:07:56 PM 34.2289 -85.5992 107° East 466 536 24,900 -2,750 Descending Atlanta Center
Tue 05:08:56 PM 34.1953 -85.4553 106° East 454 522 22,100 -2,700 Descending Atlanta Center
Tue 05:09:56 PM 34.1614 -85.3142 106° East 439 505 19,500 -2,500 Descending Atlanta Center
Tue 05:10:56 PM 34.1231 -85.1656 107° East 430 495 17,100 -2,650 Descending Atlanta Center
Tue 05:11:56 PM 34.0886 -85.0347 108° East 423 487 14,200 -1,900 Descending Atlanta Center
Tue 05:12:56 PM 34.0164 -84.9286 129° Southeast 405 466 13,300 -950 Descending Atlanta Center
Tue 05:13:56 PM 33.9400 -84.8350 135° Southeast 400 460 12,300 -650 Descending Atlanta Center
Tue 05:14:56 PM 33.8653 -84.7394 133° Southeast 395 455 12,000 -189 Descending Atlanta Center
Tue 05:15:31 PM 33.8167 -84.6833 136° Southeast 390 449 12,000  Level Atlanta TRACON
Tue 05:16:25 PM 33.7500 -84.5833 129° Southeast 373 429 12,000 -150 Level Atlanta TRACON
Tue 05:17:31 PM 33.7333 -84.4833 101° East 287 330 11,700 -1,286 Descending Atlanta TRACON
Tue 05:18:31 PM 33.7333 -84.4000 90° East 270 311 9,300 -2,500 Descending Atlanta TRACON
Tue 05:19:31 PM 33.7333 -84.3167 90° East 258 297 6,700 -2,263 Descending Atlanta TRACON
Tue 05:20:25 PM 33.7333 -84.2333 90° East 240 276 5,000 -1,421 Descending Atlanta TRACON
Tue 05:21:25 PM 33.7000 -84.2167 157° South 204 235 4,000 -900 Descending Atlanta TRACON
Tue 05:22:25 PM 33.6667 -84.2667 231° Southwest 183 211 3,200 -700 Descending Atlanta TRACON
Tue 05:23:25 PM 33.6500 -84.3167 248° West 176 203 2,600 -793 Descending Atlanta TRACON
Tue 05:24:26 PM 33.6500 -84.3833 270° West 145 167 1,600 -984 Descending Atlanta TRACON
Tue 05:26:00 PM 33.6333 -84.4167 North  Level FlightAware Approximate
Tue 05:33:00 PM 33.6367 -84.4279 North  Level Estimated

Login

Don't have an account? Register now (free) for customized features, flight alerts, and more!